Time;durP1;ratioP1;P1;durP2;ratioP2;P2;SDS_P1;SDS_P2;PMS_P1;PMS_P2;Temp;Humidity;BMP_temperature;BMP_pressure;BME280_temperature;BME280_humidity;BME280_pressure;Samples;Min_cycle;Max_cycle;Signal;HPM_P1;HPM_P2
2023/07/21 00:00:21;;;;;;;5.80;5.20;;;;;;;14.85;100.00;100359.38;688969;28;1416;-65
2023/07/21 00:00:46;;;;;;;5.97;4.85;;;;;;;14.84;100.00;100369.00;689242;28;4520;-66
2023/07/21 00:01:07;;;;;;;5.93;4.68;;;;;;;14.87;100.00;100362.81;689273;28;1405;-65
2023/07/21 00:01:31;;;;;;;6.15;4.93;;;;;;;14.91;100.00;100365.34;689764;28;964;-65
2023/07/21 00:01:53;;;;;;;5.82;4.40;;;;;;;14.90;100.00;100363.59;688965;28;963;-65
2023/07/21 00:02:14;;;;;;;6.32;4.65;;;;;;;14.91;100.00;100360.06;689489;28;1420;-65
2023/07/21 00:02:35;;;;;;;7.00;4.57;;;;;;;14.89;100.00;100361.00;687983;28;1861;-65
2023/07/21 00:02:55;;;;;;;6.73;5.00;;;;;;;14.88;100.00;100362.75;690232;28;1233;-65
2023/07/21 00:03:17;;;;;;;5.63;5.03;;;;;;;14.89;100.00;100361.00;689428;28;1546;-65
2023/07/21 00:03:43;;;;;;;6.80;5.60;;;;;;;14.89;100.00;100361.84;684812;28;2004;-65
2023/07/21 00:04:04;;;;;;;7.40;5.78;;;;;;;14.89;100.00;100356.59;682629;28;4510;-65
2023/07/21 00:04:24;;;;;;;6.65;5.13;;;;;;;14.89;100.00;100361.00;685603;28;794;-65
2023/07/21 00:04:45;;;;;;;6.90;5.20;;;;;;;14.89;100.00;100361.84;686804;28;964;-65
2023/07/21 00:05:06;;;;;;;6.07;5.30;;;;;;;14.88;100.00;100356.63;686398;28;1488;-65
2023/07/21 00:05:26;;;;;;;5.60;4.90;;;;;;;14.87;100.00;100363.69;687105;28;782;-65
2023/07/21 00:05:46;;;;;;;6.13;4.78;;;;;;;14.84;100.00;100363.75;689229;28;901;-65
2023/07/21 00:06:07;;;;;;;6.20;4.67;;;;;;;14.80;100.00;100356.84;688877;28;1468;-65
2023/07/21 00:06:27;;;;;;;5.43;4.50;;;;;;;14.78;100.00;100363.94;690471;28;885;-65
2023/07/21 00:06:48;;;;;;;6.80;4.83;;;;;;;14.84;100.00;100357.63;689459;28;5402;-65
2023/07/21 00:07:08;;;;;;;6.97;4.85;;;;;;;14.85;100.00;100354.94;688394;28;1634;-65
2023/07/21 00:07:32;;;;;;;6.03;4.73;;;;;;;14.85;100.00;100354.94;690632;28;1070;-65
2023/07/21 00:07:54;;;;;;;5.75;4.53;;;;;;;14.86;100.00;100356.69;690166;28;1030;-65
2023/07/21 00:08:14;;;;;;;5.78;4.75;;;;;;;14.85;100.00;100360.22;688246;28;1428;-65
2023/07/21 00:08:38;;;;;;;5.43;4.50;;;;;;;14.84;100.00;100360.25;690363;28;806;-65
2023/07/21 00:08:58;;;;;;;5.88;4.82;;;;;;;14.82;100.00;100360.31;690329;28;908;-65
2023/07/21 00:09:19;;;;;;;6.70;4.87;;;;;;;14.81;100.00;100361.19;689325;28;1521;-65
2023/07/21 00:09:40;;;;;;;5.55;4.85;;;;;;;14.80;100.00;100355.09;690415;28;821;-65
2023/07/21 00:10:00;;;;;;;5.60;4.60;;;;;;;14.79;100.00;100355.97;689129;28;4324;-65
2023/07/21 00:10:20;;;;;;;5.80;4.73;;;;;;;14.80;100.00;100356.84;689056;28;1507;-65
2023/07/21 00:10:43;;;;;;;5.70;4.67;;;;;;;14.80;100.00;100357.72;690554;28;813;-65
2023/07/21 00:11:04;;;;;;;6.10;5.25;;;;;;;14.81;100.00;100359.47;688632;28;991;-66
2023/07/21 00:11:24;;;;;;;5.95;5.15;;;;;;;14.80;100.00;100346.31;690735;28;947;-65
2023/07/21 00:11:45;;;;;;;5.83;4.60;;;;;;;14.78;100.00;100356.88;690594;28;832;-65
2023/07/21 00:12:05;;;;;;;6.15;4.70;;;;;;;14.79;100.00;100352.50;688271;28;1523;-65
2023/07/21 00:12:26;;;;;;;6.27;4.53;;;;;;;14.81;100.00;100358.56;690111;28;908;-65
2023/07/21 00:12:49;;;;;;;6.37;4.77;;;;;;;14.80;100.00;100354.22;689213;28;4375;-65
2023/07/21 00:13:09;;;;;;;5.28;4.70;;;;;;;14.81;100.00;100353.31;686137;28;1529;-65
2023/07/21 00:13:35;;;;;;;6.10;4.95;;;;;;;14.81;100.00;100350.69;684861;28;874;-65
2023/07/21 00:13:55;;;;;;;6.22;5.10;;;;;;;14.77;100.00;100349.91;685866;28;960;-65
2023/07/21 00:14:16;;;;;;;6.10;5.20;;;;;;;14.75;100.00;100354.34;686152;28;1521;-66
2023/07/21 00:14:36;;;;;;;6.03;5.18;;;;;;;14.75;100.00;100350.84;687573;28;893;-65
2023/07/21 00:14:57;;;;;;;6.30;4.90;;;;;;;14.76;100.00;100349.94;688589;28;971;-65
2023/07/21 00:15:19;;;;;;;6.90;5.10;;;;;;;14.75;100.00;100356.13;688873;28;1544;-65
2023/07/21 00:15:39;;;;;;;5.97;4.90;;;;;;;14.74;100.00;100354.38;690885;28;1008;-65
2023/07/21 00:16:02;;;;;;;5.77;4.90;;;;;;;14.74;100.00;100352.59;689406;28;4468;-65
2023/07/21 00:16:23;;;;;;;6.22;5.13;;;;;;;14.73;100.00;100356.16;688361;28;3197;-65
2023/07/21 00:16:43;;;;;;;5.93;5.27;;;;;;;14.72;100.00;100350.94;690125;28;972;-66
2023/07/21 00:17:05;;;;;;;6.15;5.10;;;;;;;14.72;100.00;100357.06;689298;28;1524;-65
2023/07/21 00:17:27;;;;;;;6.50;4.95;;;;;;;14.72;100.00;100350.94;690263;28;881;-65
2023/07/21 00:17:48;;;;;;;6.10;4.88;;;;;;;14.71;100.00;100346.59;690327;28;1007;-65
2023/07/21 00:18:09;;;;;;;5.70;5.10;;;;;;;14.70;100.00;100350.97;688456;28;1480;-65
2023/07/21 00:18:30;;;;;;;6.70;5.33;;;;;;;14.70;100.00;100353.59;687239;28;1094;-65
2023/07/21 00:18:51;;;;;;;7.30;5.03;;;;;;;14.72;100.00;100353.59;685232;28;4530;-65
2023/07/21 00:19:12;;;;;;;6.78;5.40;;;;;;;14.75;100.00;100348.22;686352;28;1484;-65
2023/07/21 00:19:32;;;;;;;6.38;5.45;;;;;;;14.74;100.00;100351.75;686885;28;1019;-65
2023/07/21 00:19:53;;;;;;;6.27;5.10;;;;;;;14.76;100.00;100344.66;687836;28;845;-65
2023/07/21 00:20:24;;;;;;;6.17;5.30;;;;;;;14.74;100.00;100346.50;686711;28;1608;-65
2023/07/21 00:20:46;;;;;;;6.20;5.25;;;;;;;14.77;100.00;100346.41;690488;28;932;-65
2023/07/21 00:21:06;;;;;;;6.28;5.05;;;;;;;14.80;100.00;100341.94;691045;28;1483;-65
2023/07/21 00:21:28;;;;;;;6.77;5.40;;;;;;;14.80;100.00;100344.56;689875;28;777;-65
2023/07/21 00:21:49;;;;;;;7.15;5.30;;;;;;;14.78;100.00;100346.34;688059;28;4522;-65
2023/07/21 00:22:10;;;;;;;6.50;5.20;;;;;;;14.76;100.00;100345.56;686472;28;1457;-65
2023/07/21 00:22:31;;;;;;;7.00;5.30;;;;;;;14.75;100.00;100348.22;683420;28;905;-65
2023/07/21 00:22:52;;;;;;;6.28;5.07;;;;;;;14.73;100.00;100342.13;685345;28;1098;-66
2023/07/21 00:23:12;;;;;;;5.70;5.10;;;;;;;14.73;100.00;100344.75;687423;28;1683;-65
2023/07/21 00:23:32;;;;;;;5.77;5.00;;;;;;;14.78;100.00;100343.72;689511;28;1914;-65
2023/07/21 00:23:53;;;;;;;6.18;4.68;;;;;;;14.80;100.00;100341.03;690542;28;816;-65
2023/07/21 00:24:13;;;;;;;6.60;4.90;;;;;;;14.76;100.00;100336.78;689548;28;1542;-65
2023/07/21 00:24:34;;;;;;;6.63;5.03;;;;;;;14.76;100.00;100344.66;689994;28;971;-65
2023/07/21 00:24:54;;;;;;;7.53;5.13;;;;;;;14.73;100.00;100340.38;689248;28;4355;-65
2023/07/21 00:25:14;;;;;;;7.17;5.27;;;;;;;14.72;100.00;100343.06;689547;28;1503;-65
2023/07/21 00:25:35;;;;;;;5.90;4.97;;;;;;;14.73;100.00;100335.13;689890;28;793;-65
2023/07/21 00:25:56;;;;;;;5.85;5.13;;;;;;;14.70;100.00;100339.59;690435;28;936;-65
2023/07/21 00:26:16;;;;;;;6.37;5.47;;;;;;;14.68;100.00;100341.41;689069;28;1468;-66
2023/07/21 00:26:37;;;;;;;6.50;5.28;;;;;;;14.66;100.00;100348.47;689797;28;959;-66
2023/07/21 00:27:01;;;;;;;6.37;5.47;;;;;;;14.69;100.00;100348.38;690451;28;1012;-65
2023/07/21 00:27:22;;;;;;;5.82;5.07;;;;;;;14.68;100.00;100341.41;689666;28;2183;-65
2023/07/21 00:27:44;;;;;;;5.80;4.90;;;;;;;14.67;100.00;100339.69;690239;28;935;-65
2023/07/21 00:28:05;;;;;;;7.32;5.47;;;;;;;14.67;100.00;100339.69;688636;28;4584;-66
2023/07/21 00:28:26;;;;;;;6.40;5.55;;;;;;;14.68;100.00;100347.53;691037;28;1324;-65
2023/07/21 00:28:47;;;;;;;6.25;5.65;;;;;;;14.69;100.00;100341.38;690114;28;1589;-66
2023/07/21 00:29:07;;;;;;;6.57;5.77;;;;;;;14.69;100.00;100338.72;689579;28;1495;-65
2023/07/21 00:29:29;;;;;;;6.90;5.47;;;;;;;14.67;100.00;100343.16;690165;28;757;-65
2023/07/21 00:29:50;;;;;;;6.80;5.43;;;;;;;14.68;100.00;100346.66;690166;28;1534;-65
2023/07/21 00:30:11;;;;;;;6.53;5.13;;;;;;;14.68;100.00;100341.41;689691;28;1481;-65
2023/07/21 00:30:33;;;;;;;6.15;5.13;;;;;;;14.60;100.00;100339.78;689602;28;951;-65
2023/07/21 00:30:53;;;;;;;5.87;5.00;;;;;;;14.61;100.00;100343.31;688382;28;4410;-65
2023/07/21 00:31:13;;;;;;;6.00;5.30;;;;;;;14.61;100.00;100338.03;685632;28;1619;-65
2023/07/21 00:31:35;;;;;;;6.07;5.20;;;;;;;14.61;100.00;100340.66;687702;28;810;-65
2023/07/21 00:31:55;;;;;;;5.72;5.00;;;;;;;14.60;100.00;100339.78;684563;28;1362;-65
2023/07/21 00:32:18;;;;;;;6.13;5.40;;;;;;;14.62;100.00;100338.03;683444;28;1474;-65
2023/07/21 00:32:40;;;;;;;6.82;5.43;;;;;;;14.60;100.00;100339.78;685968;28;1247;-67
2023/07/21 00:33:00;;;;;;;6.82;5.13;;;;;;;14.61;100.00;100338.03;685062;28;2044;-65
2023/07/21 00:33:22;;;;;;;7.60;5.60;;;;;;;14.60;100.00;100337.16;684180;28;1616;-65
2023/07/21 00:33:42;;;;;;;6.82;5.40;;;;;;;14.58;100.00;100336.34;685564;28;1562;-65
2023/07/21 00:34:08;;;;;;;7.27;5.30;;;;;;;14.59;100.00;100338.09;683533;28;4433;-65
2023/07/21 00:34:28;;;;;;;6.55;5.40;;;;;;;14.58;100.00;100333.72;682878;29;1247;-65
2023/07/21 00:34:51;;;;;;;7.20;5.00;;;;;;;14.60;100.00;100333.69;685595;28;1031;-66
2023/07/21 00:35:12;;;;;;;7.30;5.22;;;;;;;14.60;100.00;100331.91;684226;28;1730;-65
2023/07/21 00:35:34;;;;;;;5.78;4.82;;;;;;;14.62;100.00;100331.84;685226;28;916;-65
2023/07/21 00:35:55;;;;;;;6.47;5.20;;;;;;;14.62;100.00;100334.47;684420;28;905;-65
2023/07/21 00:36:17;;;;;;;5.95;5.18;;;;;;;14.62;100.00;100335.41;684358;28;1486;-65
2023/07/21 00:36:37;;;;;;;6.03;5.13;;;;;;;14.65;100.00;100331.81;687812;28;1243;-65
2023/07/21 00:36:58;;;;;;;5.70;4.90;;;;;;;14.65;100.00;100337.09;685348;28;4480;-65
2023/07/21 00:37:19;;;;;;;6.68;5.20;;;;;;;14.65;100.00;100331.81;686632;28;1672;-65
2023/07/21 00:37:39;;;;;;;6.20;5.03;;;;;;;14.66;100.00;100332.69;686003;28;1269;-65
2023/07/21 00:38:01;;;;;;;6.00;5.10;;;;;;;14.68;100.00;100337.00;684094;28;1369;-65
2023/07/21 00:38:21;;;;;;;5.95;4.85;;;;;;;14.69;100.00;100332.59;683463;28;1646;-66
2023/07/21 00:38:42;;;;;;;6.13;4.88;;;;;;;14.70;100.00;100335.19;681891;28;1472;-65
2023/07/21 00:39:03;;;;;;;6.03;5.00;;;;;;;14.70;100.00;100334.31;682984;28;5525;-65
2023/07/21 00:39:24;;;;;;;6.70;5.05;;;;;;;14.71;100.00;100333.44;681368;28;1452;-65
2023/07/21 00:39:45;;;;;;;6.47;5.28;;;;;;;14.70;100.00;100329.91;681543;28;4843;-65
2023/07/21 00:40:10;;;;;;;7.07;5.57;;;;;;;14.69;100.00;100332.59;681545;28;1474;-65
2023/07/21 00:40:33;;;;;;;6.15;5.53;;;;;;;14.66;100.00;100335.31;683217;28;1362;-65
2023/07/21 00:40:53;;;;;;;6.60;5.65;;;;;;;14.66;100.00;100333.53;686811;28;821;-65
2023/07/21 00:41:15;;;;;;;6.70;5.30;;;;;;;14.67;100.00;100331.78;688190;28;1700;-65
2023/07/21 00:41:36;;;;;;;7.10;5.30;;;;;;;14.67;100.00;100332.63;688002;28;1327;-65
2023/07/21 00:41:57;;;;;;;6.30;5.37;;;;;;;14.67;100.00;100330.00;688008;28;1140;-65
2023/07/21 00:42:17;;;;;;;6.32;5.60;;;;;;;14.66;100.00;100336.16;686985;28;1620;-65
2023/07/21 00:42:37;;;;;;;6.43;5.50;;;;;;;14.66;100.00;100330.06;687695;28;889;-65
2023/07/21 00:42:58;;;;;;;6.77;5.93;;;;;;;14.66;100.00;100335.31;683690;28;4536;-65
2023/07/21 00:43:18;;;;;;;7.60;5.82;;;;;;;14.67;100.00;100335.25;683260;28;1687;-65
2023/07/21 00:43:39;;;;;;;7.37;5.80;;;;;;;14.67;100.00;100329.16;684829;28;1922;-65
2023/07/21 00:44:01;;;;;;;7.83;6.10;;;;;;;14.66;100.00;100327.41;687407;28;898;-65
2023/07/21 00:44:21;;;;;;;6.85;5.85;;;;;;;14.64;100.00;100336.22;686997;28;1517;-65
2023/07/21 00:44:41;;;;;;;6.90;6.00;;;;;;;14.64;100.00;100330.94;687702;28;786;-65
2023/07/21 00:45:03;;;;;;;6.43;5.70;;;;;;;14.64;100.00;100340.63;688304;28;1234;-65
2023/07/21 00:45:23;;;;;;;6.47;5.63;;;;;;;14.64;100.00;100338.00;689465;28;987;-65
2023/07/21 00:45:46;;;;;;;6.30;5.70;;;;;;;14.64;100.00;100333.56;689924;28;975;-65
2023/07/21 00:46:07;;;;;;;6.00;5.40;;;;;;;14.67;100.00;100335.25;686889;28;4891;-65
2023/07/21 00:46:28;;;;;;;6.43;5.45;;;;;;;14.69;100.00;100338.72;685389;28;1469;-65
2023/07/21 00:46:49;;;;;;;6.35;5.43;;;;;;;14.70;100.00;100347.47;685575;28;1140;-65
2023/07/21 00:47:10;;;;;;;6.45;5.60;;;;;;;14.69;100.00;100338.72;686058;28;1541;-66
2023/07/21 00:47:33;;;;;;;6.80;5.57;;;;;;;14.70;100.00;100343.06;685374;28;1367;-65
2023/07/21 00:47:54;;;;;;;6.45;5.65;;;;;;;14.70;100.00;100340.44;685562;28;1372;-65
2023/07/21 00:48:18;;;;;;;6.40;5.70;;;;;;;14.70;100.00;100340.44;684006;28;1471;-65
2023/07/21 00:48:38;;;;;;;6.95;5.70;;;;;;;14.70;100.00;100340.44;686155;28;1389;-65
2023/07/21 00:48:59;;;;;;;6.20;5.27;;;;;;;14.71;100.00;100336.91;684454;28;4470;-65
2023/07/21 00:49:19;;;;;;;6.85;5.50;;;;;;;14.72;100.00;100337.78;684632;28;1667;-65
2023/07/21 00:49:43;;;;;;;7.32;5.68;;;;;;;14.72;100.00;100340.44;687797;28;1205;-65
2023/07/21 00:50:04;;;;;;;6.63;5.40;;;;;;;14.75;100.00;100337.69;686700;28;2123;-65
2023/07/21 00:50:24;;;;;;;7.30;5.65;;;;;;;14.75;100.00;100346.44;682622;28;1170;-64
2023/07/21 00:50:49;;;;;;;6.40;5.70;;;;;;;14.77;100.00;100338.50;682346;29;1044;-65
2023/07/21 00:51:10;;;;;;;6.85;5.30;;;;;;;14.76;100.00;100339.41;683041;28;1478;-65
2023/07/21 00:51:31;;;;;;;6.33;5.50;;;;;;;14.77;100.00;100335.88;685357;28;1145;-65
2023/07/21 00:51:52;;;;;;;7.03;5.80;;;;;;;14.78;100.00;100337.63;683445;28;4433;-65
2023/07/21 00:52:17;;;;;;;6.75;5.70;;;;;;;14.80;100.00;100341.03;686048;28;1450;-65
2023/07/21 00:52:39;;;;;;;6.97;5.45;;;;;;;14.80;100.00;100335.78;689626;28;1473;-66
2023/07/21 00:52:59;;;;;;;6.40;5.70;;;;;;;14.80;100.00;100341.03;690136;28;745;-65
2023/07/21 00:53:20;;;;;;;6.82;5.57;;;;;;;14.80;100.00;100338.41;689839;28;1622;-66
2023/07/21 00:53:41;;;;;;;6.60;5.50;;;;;;;14.78;100.00;100333.19;688194;28;1643;-65
2023/07/21 00:54:01;;;;;;;6.50;5.50;;;;;;;14.79;100.00;100339.34;687279;28;1123;-65
2023/07/21 00:54:22;;;;;;;6.97;5.60;;;;;;;14.78;100.00;100337.63;687168;28;1502;-65
2023/07/21 00:54:45;;;;;;;6.43;5.40;;;;;;;14.78;100.00;100337.63;690906;28;830;-65
2023/07/21 00:55:07;;;;;;;6.18;5.43;;;;;;;14.78;100.00;100337.63;689046;28;4804;-65
2023/07/21 00:55:27;;;;;;;6.15;5.32;;;;;;;14.81;100.00;100342.78;688842;28;1524;-65
2023/07/21 00:55:48;;;;;;;6.75;5.70;;;;;;;14.82;100.00;100340.09;687946;28;1331;-65
2023/07/21 00:56:09;;;;;;;7.20;5.85;;;;;;;14.82;100.00;100340.09;685172;28;1827;-65
2023/07/21 00:56:30;;;;;;;7.40;5.97;;;;;;;14.82;100.00;100341.88;686169;28;897;-65
2023/07/21 00:56:53;;;;;;;6.93;5.78;;;;;;;14.83;100.00;100338.34;683943;28;1101;-65
2023/07/21 00:57:15;;;;;;;5.93;5.20;;;;;;;14.82;100.00;100334.00;684525;28;967;-65
2023/07/21 00:57:37;;;;;;;6.38;5.30;;;;;;;14.82;100.00;100341.88;687464;28;1212;-65
2023/07/21 00:57:57;;;;;;;6.25;5.30;;;;;;;14.81;100.00;100342.78;687080;28;4325;-65
2023/07/21 00:58:19;;;;;;;6.37;5.17;;;;;;;14.82;100.00;100339.25;683290;28;1532;-65
2023/07/21 00:58:39;;;;;;;6.32;4.82;;;;;;;14.80;100.00;100341.03;685504;28;944;-65
2023/07/21 00:59:00;;;;;;;5.80;4.90;;;;;;;14.82;100.00;100340.09;685429;28;1000;-65
2023/07/21 00:59:21;;;;;;;6.38;5.05;;;;;;;14.81;100.00;100337.53;683875;28;1501;-65
2023/07/21 00:59:41;;;;;;;6.28;4.88;;;;;;;14.82;100.00;100344.53;688469;28;912;-65
2023/07/21 01:00:07;;;;;;;6.03;5.25;;;;;;;14.83;100.00;100335.72;690804;28;879;-64
2023/07/21 01:00:28;;;;;;;6.55;5.25;;;;;;;14.83;100.00;100341.00;690112;28;910;-65
2023/07/21 01:00:48;;;;;;;6.72;5.10;;;;;;;14.82;100.00;100334.00;687531;28;4501;-65
2023/07/21 01:01:09;;;;;;;6.53;5.25;;;;;;;14.83;100.00;100338.34;687788;28;1464;-65
2023/07/21 01:01:29;;;;;;;5.70;4.83;;;;;;;14.82;100.00;100340.09;687658;28;794;-65
2023/07/21 01:01:50;;;;;;;5.60;4.72;;;;;;;14.81;100.00;100337.53;688271;28;805;-65
2023/07/21 01:02:11;;;;;;;6.73;4.90;;;;;;;14.80;100.00;100338.41;684481;28;1537;-65
2023/07/21 01:02:31;;;;;;;6.35;5.00;;;;;;;14.83;100.00;100335.72;684473;28;1339;-65
2023/07/21 01:02:51;;;;;;;5.68;4.85;;;;;;;14.81;100.00;100338.41;685417;28;1759;-66
2023/07/21 01:03:13;;;;;;;6.30;5.17;;;;;;;14.83;100.00;100333.09;684504;28;1499;-65
2023/07/21 01:03:35;;;;;;;6.10;5.10;;;;;;;14.80;100.00;100338.41;684761;28;1975;-65
2023/07/21 01:03:57;;;;;;;6.32;5.07;;;;;;;14.79;100.00;100339.34;684771;28;4343;-65
2023/07/21 01:04:18;;;;;;;5.53;4.93;;;;;;;14.80;100.00;100330.53;684555;28;1541;-65
2023/07/21 01:04:39;;;;;;;6.18;4.85;;;;;;;14.79;100.00;100339.34;686399;28;889;-65
2023/07/21 01:05:01;;;;;;;6.88;5.20;;;;;;;14.80;100.00;100335.78;689289;28;867;-65
2023/07/21 01:05:23;;;;;;;6.47;5.23;;;;;;;14.80;100.00;100333.16;689167;28;1535;-65
2023/07/21 01:05:49;;;;;;;6.68;5.35;;;;;;;14.79;100.00;100334.09;690157;28;1058;-65
2023/07/21 01:06:12;;;;;;;6.18;4.65;;;;;;;14.75;100.00;100338.56;689901;28;1496;-65
2023/07/21 01:06:34;;;;;;;5.95;4.90;;;;;;;14.75;100.00;100340.34;689980;28;1909;-65
2023/07/21 01:06:54;;;;;;;5.82;4.93;;;;;;;14.74;100.00;100341.22;689982;28;4695;-65
2023/07/21 01:07:15;;;;;;;6.00;5.10;;;;;;;14.74;100.00;100346.50;687155;28;1425;-65
2023/07/21 01:07:37;;;;;;;6.05;4.95;;;;;;;14.72;100.00;100340.44;687692;28;1066;-65
2023/07/21 01:07:59;;;;;;;5.30;4.70;;;;;;;14.72;100.00;100343.06;684850;28;952;-65
2023/07/21 01:08:21;;;;;;;5.18;4.50;;;;;;;14.73;100.00;100344.75;685182;28;1425;-65
2023/07/21 01:08:42;;;;;;;5.85;4.70;;;;;;;14.74;100.00;100338.59;687006;28;1375;-64
2023/07/21 01:09:06;;;;;;;7.07;5.15;;;;;;;14.72;100.00;100343.91;687145;28;802;-65
2023/07/21 01:09:27;;;;;;;6.45;4.70;;;;;;;14.76;100.00;100339.41;685112;28;1399;-65
2023/07/21 01:09:48;;;;;;;6.68;5.00;;;;;;;14.75;100.00;100341.19;685501;28;4782;-65
2023/07/21 01:10:11;;;;;;;5.88;5.18;;;;;;;14.75;100.00;100342.97;682401;28;1541;-62
2023/07/21 01:10:35;;;;;;;6.15;5.07;;;;;;;14.74;100.00;100349.13;681361;29;1355;-66
2023/07/21 01:10:56;;;;;;;6.00;5.25;;;;;;;14.73;100.00;100345.66;681751;29;1025;-65
2023/07/21 01:11:17;;;;;;;5.82;4.97;;;;;;;14.74;100.00;100347.34;682122;28;1438;-65
2023/07/21 01:11:38;;;;;;;6.45;4.78;;;;;;;14.69;100.00;100349.25;685356;28;1429;-65
2023/07/21 01:11:59;;;;;;;6.60;4.88;;;;;;;14.72;100.00;100348.31;684763;28;842;-65
2023/07/21 01:12:20;;;;;;;6.15;5.03;;;;;;;14.72;100.00;100343.91;685109;28;1470;-65
2023/07/21 01:12:40;;;;;;;6.93;5.00;;;;;;;14.77;100.00;100346.41;684767;28;3397;-65
2023/07/21 01:13:02;;;;;;;5.75;4.95;;;;;;;14.76;100.00;100339.41;684026;28;4356;-65
2023/07/21 01:13:22;;;;;;;6.43;5.13;;;;;;;14.75;100.00;100342.97;684802;28;1210;-65
2023/07/21 01:13:43;;;;;;;5.80;5.10;;;;;;;14.74;100.00;100338.59;686512;28;904;-66
2023/07/21 01:14:06;;;;;;;6.00;4.68;;;;;;;14.72;100.00;100338.66;684491;28;1615;-65
2023/07/21 01:14:29;;;;;;;6.82;5.18;;;;;;;14.68;100.00;100341.41;688178;28;1190;-65
2023/07/21 01:14:50;;;;;;;6.40;5.28;;;;;;;14.65;100.00;100342.34;687699;28;1563;-65
2023/07/21 01:15:10;;;;;;;6.37;5.37;;;;;;;14.61;100.00;100341.53;686362;28;1555;-65
2023/07/21 01:15:37;;;;;;;6.43;5.28;;;;;;;14.59;100.00;100337.22;689166;28;985;-65
2023/07/21 01:15:59;;;;;;;6.40;5.43;;;;;;;14.59;100.00;100332.81;690155;28;4373;-65
2023/07/21 01:16:25;;;;;;;6.22;5.18;;;;;;;14.60;100.00;100344.19;688787;28;1496;-65
2023/07/21 01:16:46;;;;;;;6.05;4.85;;;;;;;14.59;100.00;100340.72;689843;28;933;-65
2023/07/21 01:17:08;;;;;;;7.53;5.53;;;;;;;14.60;100.00;100346.84;686300;28;1480;-65
2023/07/21 01:17:29;;;;;;;7.00;5.28;;;;;;;14.60;100.00;100345.06;685195;28;885;-65
2023/07/21 01:17:51;;;;;;;6.00;4.93;;;;;;;14.58;100.00;100333.72;685139;28;1037;-65
2023/07/21 01:18:16;;;;;;;6.07;5.05;;;;;;;14.59;100.00;100342.47;683428;28;1498;-65
2023/07/21 01:18:37;;;;;;;6.22;5.20;;;;;;;14.59;100.00;100342.47;683667;28;1619;-65
2023/07/21 01:18:58;;;;;;;6.40;5.03;;;;;;;14.56;100.00;100338.16;685986;28;4479;-65
2023/07/21 01:19:19;;;;;;;6.10;5.15;;;;;;;14.55;100.00;100341.69;687413;28;1533;-65
2023/07/21 01:19:41;;;;;;;6.45;4.90;;;;;;;14.56;100.00;100337.28;683468;28;1196;-65
2023/07/21 01:20:04;;;;;;;6.22;4.90;;;;;;;14.55;100.00;100344.34;685578;28;767;-65
2023/07/21 01:20:27;;;;;;;6.18;4.95;;;;;;;14.53;100.00;100340.88;684659;28;957;-65
2023/07/21 01:20:49;;;;;;;5.78;4.70;;;;;;;14.51;100.00;100337.44;687536;28;826;-65
2023/07/21 01:21:14;;;;;;;6.15;5.00;;;;;;;14.54;100.00;100333.81;686119;28;2090;-65
2023/07/21 01:21:40;;;;;;;6.20;4.90;;;;;;;14.48;100.00;100338.38;689325;28;988;-65
2023/07/21 01:22:10;;;;;;;6.40;5.10;;;;;;;14.47;100.00;100338.41;689449;28;4439;-65
2023/07/21 01:22:45;;;;;;;6.57;5.25;;;;;;;14.44;100.00;100336.72;689973;28;968;-65
2023/07/21 01:23:13;;;;;;;6.40;4.80;;;;;;;14.41;100.00;100328.03;690095;28;1613;-65
2023/07/21 01:24:00;;;;;;;6.47;5.50;;;;;;;14.35;100.00;100333.47;687269;28;1915;-65
2023/07/21 01:24:36;;;;;;;6.85;5.50;;;;;;;14.33;100.00;100336.13;685242;28;1758;-65
2023/07/21 01:25:09;;;;;;;6.15;5.38;;;;;;;14.34;100.00;100337.84;684877;28;4463;-65
2023/07/21 01:25:32;;;;;;;7.75;5.97;;;;;;;14.34;100.00;100337.00;685048;28;852;-65
2023/07/21 01:25:55;;;;;;;6.80;5.85;;;;;;;14.35;100.00;100333.47;687366;28;900;-65
2023/07/21 01:26:16;;;;;;;6.90;5.65;;;;;;;14.36;100.00;100330.78;685187;28;1470;-66
2023/07/21 01:26:39;;;;;;;7.10;5.68;;;;;;;14.35;100.00;100339.56;681925;28;1392;-65
2023/07/21 01:27:01;;;;;;;6.40;5.55;;;;;;;14.36;100.00;100335.16;682605;29;918;-65
2023/07/21 01:27:24;;;;;;;6.47;5.15;;;;;;;14.37;100.00;100336.91;683037;28;1458;-65
2023/07/21 01:27:48;;;;;;;7.72;5.15;;;;;;;14.36;100.00;100327.28;680748;29;841;-65
2023/07/21 01:28:12;;;;;;;7.18;5.38;;;;;;;14.36;100.00;100336.06;679609;28;5069;-65
2023/07/21 01:28:32;;;;;;;6.20;5.40;;;;;;;14.38;100.00;100330.75;686336;28;894;-65
2023/07/21 01:28:53;;;;;;;7.10;5.32;;;;;;;14.42;100.00;100328.00;684700;28;880;-65
2023/07/21 01:29:16;;;;;;;6.22;5.28;;;;;;;14.43;100.00;100327.09;684323;28;1537;-65
2023/07/21 01:29:41;;;;;;;6.32;5.30;;;;;;;14.42;100.00;100329.78;683644;28;1126;-65
2023/07/21 01:30:06;;;;;;;6.47;5.55;;;;;;;14.40;100.00;100328.94;685057;28;924;-65
2023/07/21 01:30:28;;;;;;;6.35;5.03;;;;;;;14.41;100.00;100328.03;685166;28;1241;-65
2023/07/21 01:30:53;;;;;;;7.20;5.10;;;;;;;14.39;100.00;100325.44;682474;28;4542;-65
2023/07/21 01:31:16;;;;;;;7.90;5.45;;;;;;;14.37;100.00;100323.75;680828;28;1549;-65
2023/07/21 01:31:40;;;;;;;6.10;5.50;;;;;;;14.36;100.00;100327.28;683191;28;873;-65
2023/07/21 01:32:02;;;;;;;6.47;5.40;;;;;;;14.36;100.00;100330.78;683993;28;869;-65
2023/07/21 01:32:26;;;;;;;6.40;5.47;;;;;;;14.36;100.00;100325.53;682618;28;1455;-65
2023/07/21 01:32:49;;;;;;;6.43;5.55;;;;;;;14.35;100.00;100322.94;685240;28;2090;-65
2023/07/21 01:33:11;;;;;;;6.32;5.20;;;;;;;14.36;100.00;100328.16;685253;28;1444;-65
2023/07/21 01:33:32;;;;;;;6.28;4.90;;;;;;;14.35;100.00;100326.44;684593;28;1266;-65
2023/07/21 01:33:55;;;;;;;6.90;4.97;;;;;;;14.34;100.00;100316.81;686696;28;4306;-65
2023/07/21 01:34:16;;;;;;;6.80;4.93;;;;;;;14.35;100.00;100320.31;688547;28;1453;-65
2023/07/21 01:34:38;;;;;;;5.80;4.93;;;;;;;14.35;100.00;100322.94;683460;28;1373;-65
2023/07/21 01:34:59;;;;;;;6.22;5.10;;;;;;;14.33;100.00;100319.47;683729;28;945;-65
2023/07/21 01:35:21;;;;;;;6.43;5.18;;;;;;;14.34;100.00;100322.06;684786;28;1426;-65
2023/07/21 01:35:43;;;;;;;6.82;5.40;;;;;;;14.33;100.00;100316.84;683446;28;975;-65
2023/07/21 01:36:05;;;;;;;6.50;5.20;;;;;;;14.31;100.00;100322.16;683335;28;1730;-65
2023/07/21 01:36:26;;;;;;;6.60;5.65;;;;;;;14.31;100.00;100320.38;686721;28;991;-65
2023/07/21 01:36:48;;;;;;;7.40;5.57;;;;;;;14.34;100.00;100321.22;683316;28;4519;-65
2023/07/21 01:37:11;;;;;;;6.63;5.63;;;;;;;14.33;100.00;100319.47;680836;28;1687;-65
2023/07/21 01:37:32;;;;;;;7.82;5.60;;;;;;;14.31;100.00;100316.88;683108;28;777;-66
2023/07/21 01:37:55;;;;;;;8.18;5.47;;;;;;;14.31;100.00;100316.88;684424;28;1023;-65
2023/07/21 01:38:18;;;;;;;7.07;5.45;;;;;;;14.31;100.00;100314.25;683313;28;1461;-65
2023/07/21 01:38:39;;;;;;;6.10;5.18;;;;;;;14.30;100.00;100317.78;685048;28;1428;-66
2023/07/21 01:39:00;;;;;;;6.38;5.30;;;;;;;14.31;100.00;100312.47;684573;28;5450;-65
2023/07/21 01:39:21;;;;;;;6.20;5.00;;;;;;;14.31;100.00;100311.63;683417;28;1588;-65
2023/07/21 01:39:42;;;;;;;6.50;5.30;;;;;;;14.33;100.00;100314.22;684384;28;845;-65
2023/07/21 01:40:06;;;;;;;6.82;5.82;;;;;;;14.38;100.00;100318.44;681553;28;4363;-65
2023/07/21 01:40:29;;;;;;;8.57;5.97;;;;;;;14.38;100.00;100318.44;683324;28;967;-65
2023/07/21 01:40:52;;;;;;;7.05;5.43;;;;;;;14.41;100.00;100317.50;686837;28;927;-65
2023/07/21 01:41:15;;;;;;;7.30;5.32;;;;;;;14.45;100.00;100313.91;682965;28;1578;-66
2023/07/21 01:41:37;;;;;;;6.68;5.53;;;;;;;14.48;100.00;100313.81;684902;28;1205;-65
2023/07/21 01:42:00;;;;;;;7.15;5.82;;;;;;;14.48;100.00;100314.69;686147;28;991;-65
2023/07/21 01:42:21;;;;;;;7.38;5.78;;;;;;;14.48;100.00;100313.81;685581;28;1567;-65
2023/07/21 01:42:45;;;;;;;6.68;5.55;;;;;;;14.47;100.00;100314.75;686100;28;912;-65
2023/07/21 01:43:07;;;;;;;6.50;5.80;;;;;;;14.45;100.00;100314.78;686412;28;4805;-65
2023/07/21 01:43:27;;;;;;;6.57;5.80;;;;;;;14.46;100.00;100320.91;691804;28;837;-65
2023/07/21 01:43:48;;;;;;;6.33;5.50;;;;;;;14.44;100.00;100314.78;690283;28;1912;-65